createdAt,value
2023-01-07T00:01:47.452Z,23.88
2023-01-07T00:04:16.596Z,25.63
2023-01-07T00:06:47.564Z,24.77
2023-01-07T00:09:16.858Z,17.58
2023-01-07T00:11:45.728Z,18.45
2023-01-07T00:14:15.239Z,24.98
2023-01-07T00:16:43.487Z,20.25
2023-01-07T00:19:15.530Z,17.40
2023-01-07T00:21:43.866Z,12.57
2023-01-07T00:24:12.292Z,12.02
2023-01-07T00:26:41.830Z,10.20
2023-01-07T00:29:10.087Z,10.90
2023-01-07T00:31:40.542Z,10.55
2023-01-07T00:34:09.601Z,11.15
2023-01-07T00:36:40.661Z,17.10
2023-01-07T00:39:16.004Z,15.98
2023-01-07T00:42:03.644Z,14.27
2023-01-07T00:44:32.476Z,13.15
2023-01-07T00:47:00.927Z,11.90
2023-01-07T00:49:29.349Z,10.57
2023-01-07T00:51:57.222Z,15.63
2023-01-07T00:54:26.037Z,14.82
2023-01-07T00:56:53.892Z,11.52
2023-01-07T00:59:21.769Z,8.70
2023-01-07T01:01:49.960Z,17.58
2023-01-07T01:04:17.838Z,19.95
2023-01-07T01:06:45.707Z,27.50
2023-01-07T01:09:14.397Z,27.15
2023-01-07T01:11:42.343Z,55.60
2023-01-07T01:14:12.035Z,55.47
2023-01-07T01:16:40.017Z,36.08
2023-01-07T01:19:08.079Z,50.05
2023-01-07T01:21:36.205Z,49.40
2023-01-07T01:24:04.342Z,57.58
2023-01-07T01:26:32.231Z,49.60
2023-01-07T01:29:00.108Z,33.35
2023-01-07T01:31:28.603Z,27.13
2023-01-07T01:33:57.544Z,23.88
2023-01-07T01:36:25.772Z,21.80
2023-01-07T01:38:57.644Z,23.40
2023-01-07T01:41:27.755Z,18.88
2023-01-07T01:43:57.889Z,21.77
2023-01-07T01:46:45.927Z,21.58
2023-01-07T01:49:24.110Z,19.75
2023-01-07T01:52:12.656Z,21.42
2023-01-07T01:54:47.924Z,18.17
2023-01-07T01:57:20.306Z,18.20
2023-01-07T01:59:52.984Z,20.10
2023-01-07T02:02:30.280Z,22.08
2023-01-07T02:04:59.045Z,23.63
2023-01-07T02:07:27.068Z,18.60
2023-01-07T02:13:32.863Z,19.02
2023-01-07T02:16:28.402Z,23.02
2023-01-07T02:19:14.664Z,22.65
2023-01-07T02:22:09.321Z,24.17
2023-01-07T02:25:03.737Z,23.75
2023-01-07T02:28:10.392Z,20.88
2023-01-07T02:31:08.928Z,20.55
2023-01-07T02:34:08.767Z,21.70
2023-01-07T02:37:00.986Z,26.17
2023-01-07T02:39:59.584Z,28.13
2023-01-07T02:42:55.751Z,27.40
2023-01-07T02:45:36.453Z,22.48
2023-01-07T02:48:09.282Z,21.25
2023-01-07T02:50:37.092Z,23.92
2023-01-07T02:53:08.337Z,25.92
2023-01-07T02:56:01.444Z,19.77
2023-01-07T02:59:09.248Z,22.95
2023-01-07T03:02:14.696Z,26.83
2023-01-07T03:05:14.050Z,70.00
2023-01-07T03:08:01.452Z,57.83
2023-01-07T03:10:52.725Z,34.28
2023-01-07T03:13:31.804Z,28.67
2023-01-07T03:16:13.959Z,22.52
2023-01-07T03:18:56.372Z,28.65
2023-01-07T03:21:26.219Z,27.33
2023-01-07T03:23:57.483Z,28.52
2023-01-07T03:26:39.648Z,25.58
2023-01-07T03:29:12.105Z,24.27
2023-01-07T03:32:07.430Z,23.70
2023-01-07T03:34:37.877Z,21.13
2023-01-07T03:37:14.840Z,18.60
2023-01-07T03:39:46.468Z,20.40
2023-01-07T03:42:40.326Z,16.65
2023-01-07T03:47:53.429Z,19.00
2023-01-07T03:50:23.302Z,31.10
2023-01-07T03:52:52.466Z,34.45
2023-01-07T03:55:21.986Z,31.70
2023-01-07T03:57:52.009Z,28.40
2023-01-07T04:00:19.915Z,25.40
2023-01-07T04:02:55.454Z,30.20
2023-01-07T04:05:30.616Z,30.95
2023-01-07T04:07:59.221Z,37.90
2023-01-07T04:10:32.210Z,39.42
2023-01-07T04:13:00.036Z,51.45
2023-01-07T04:15:27.852Z,29.63
2023-01-07T04:17:55.594Z,37.35
2023-01-07T04:20:24.725Z,33.20
2023-01-07T04:22:52.516Z,32.15
2023-01-07T04:25:20.332Z,34.33
2023-01-07T04:27:48.587Z,35.90
2023-01-07T04:30:16.581Z,42.63
2023-01-07T04:32:45.717Z,38.92
2023-01-07T04:35:13.588Z,44.53
2023-01-07T04:37:41.435Z,36.65
2023-01-07T04:40:10.198Z,39.10
2023-01-07T04:42:38.640Z,42.13
2023-01-07T04:45:09.414Z,50.75
2023-01-07T04:47:37.508Z,52.80
2023-01-07T04:50:05.996Z,55.67
2023-01-07T04:52:36.246Z,57.65
2023-01-07T04:55:05.394Z,57.83
2023-01-07T04:57:33.284Z,43.65
2023-01-07T05:00:01.171Z,38.33
2023-01-07T05:02:29.332Z,40.50
2023-01-07T05:04:57.418Z,41.65
2023-01-07T05:07:25.209Z,40.15
2023-01-07T05:09:53.842Z,63.55
2023-01-07T05:12:21.886Z,53.88
2023-01-07T05:14:49.725Z,46.97
2023-01-07T05:17:18.930Z,48.92
2023-01-07T05:19:47.490Z,69.32
2023-01-07T05:22:16.684Z,103.05
2023-01-07T05:24:44.684Z,93.22
2023-01-07T05:27:12.753Z,68.45
2023-01-07T05:29:41.778Z,66.15
2023-01-07T05:32:09.663Z,58.60
2023-01-07T05:34:40.021Z,52.40
2023-01-07T05:37:08.206Z,59.47
2023-01-07T05:39:36.468Z,54.28
2023-01-07T05:42:06.219Z,44.72
2023-01-07T05:44:34.447Z,38.45
2023-01-07T05:47:02.562Z,40.10
2023-01-07T05:49:30.412Z,44.88
2023-01-07T05:51:58.201Z,68.57
2023-01-07T05:54:26.071Z,57.92
2023-01-07T05:56:53.809Z,58.63
2023-01-07T05:59:21.660Z,54.08
2023-01-07T06:01:49.561Z,64.10
2023-01-07T06:04:17.471Z,66.13
2023-01-07T06:06:45.234Z,56.78
2023-01-07T06:09:13.085Z,57.25
2023-01-07T06:11:40.803Z,51.05
2023-01-07T06:14:08.692Z,65.95
2023-01-07T06:16:36.623Z,58.15
2023-01-07T06:19:04.395Z,48.33
2023-01-07T06:21:32.216Z,41.42
2023-01-07T06:23:59.992Z,56.63
2023-01-07T06:26:27.767Z,66.85
2023-01-07T06:28:55.605Z,68.43
2023-01-07T06:31:23.431Z,62.67
2023-01-07T06:33:51.255Z,62.63
2023-01-07T06:36:19.509Z,60.60
2023-01-07T06:38:47.464Z,54.22
2023-01-07T06:41:15.411Z,48.83
2023-01-07T06:43:43.213Z,49.80
2023-01-07T06:46:11.210Z,43.17
2023-01-07T06:48:39.008Z,37.67
2023-01-07T06:51:07.053Z,41.65
2023-01-07T06:53:34.939Z,26.15
2023-01-07T06:56:02.850Z,46.13
2023-01-07T06:58:30.743Z,44.03
2023-01-07T07:01:08.091Z,49.90
2023-01-07T07:03:36.105Z,52.53
2023-01-07T07:06:05.123Z,60.05
2023-01-07T07:08:33.013Z,57.05
2023-01-07T07:11:00.819Z,66.43
2023-01-07T07:13:28.716Z,72.72
2023-01-07T07:15:56.568Z,63.15
2023-01-07T07:18:24.274Z,50.42
2023-01-07T07:20:52.024Z,46.53
2023-01-07T07:23:19.865Z,44.65
2023-01-07T07:25:47.818Z,43.17
2023-01-07T07:28:17.265Z,55.53
2023-01-07T07:30:46.487Z,87.00
2023-01-07T07:33:19.679Z,114.00
2023-01-07T07:35:48.391Z,105.22
2023-01-07T07:38:18.127Z,97.25
2023-01-07T07:40:47.530Z,91.35
2023-01-07T07:43:16.294Z,77.40
2023-01-07T07:45:44.146Z,88.15
2023-01-07T07:48:15.181Z,80.07
2023-01-07T07:50:43.316Z,89.57
2023-01-07T07:53:11.807Z,94.18
2023-01-07T07:55:40.854Z,96.10
2023-01-07T07:58:08.831Z,96.80
2023-01-07T08:00:36.805Z,94.18
2023-01-07T08:03:05.090Z,91.68
2023-01-07T08:05:33.385Z,90.15
2023-01-07T08:08:01.401Z,76.90
2023-01-07T08:10:29.741Z,60.13
2023-01-07T08:12:57.780Z,53.47
2023-01-07T08:15:25.570Z,43.20
2023-01-07T08:18:05.039Z,38.13
2023-01-07T08:20:34.821Z,32.97
2023-01-07T08:23:05.727Z,27.95
2023-01-07T08:25:35.262Z,29.40
2023-01-07T08:28:04.640Z,27.67
2023-01-07T08:30:32.799Z,26.63
2023-01-07T08:33:01.071Z,28.33
2023-01-07T08:35:28.934Z,27.77
2023-01-07T08:38:08.616Z,31.50
2023-01-07T08:40:37.729Z,36.85
2023-01-07T08:43:08.185Z,31.70
2023-01-07T08:45:36.337Z,26.73
2023-01-07T08:48:05.375Z,24.40
2023-01-07T08:50:34.341Z,34.28
2023-01-07T08:53:02.284Z,33.70
2023-01-07T08:55:30.134Z,34.33
2023-01-07T08:57:58.017Z,28.75
2023-01-07T09:00:26.471Z,29.67
2023-01-07T09:02:54.339Z,26.45
2023-01-07T09:05:22.326Z,30.23
2023-01-07T09:07:53.289Z,29.70
2023-01-07T09:12:48.631Z,26.52
2023-01-07T09:15:16.874Z,29.30
2023-01-07T09:17:44.726Z,28.17
2023-01-07T09:20:12.660Z,35.33
2023-01-07T09:22:40.496Z,36.70
2023-01-07T09:25:09.280Z,48.20
2023-01-07T09:27:38.351Z,42.75
2023-01-07T09:30:08.170Z,36.83
2023-01-07T09:32:36.030Z,27.45
2023-01-07T09:35:06.691Z,25.80
2023-01-07T09:37:34.554Z,14.15
2023-01-07T09:40:02.717Z,16.98
2023-01-07T09:43:07.440Z,19.83
2023-01-07T09:45:43.348Z,12.90
2023-01-07T09:48:29.837Z,16.63
2023-01-07T09:51:23.209Z,17.73
2023-01-07T09:53:54.561Z,13.98
2023-01-07T09:56:32.752Z,14.23
2023-01-07T09:59:02.723Z,11.25
2023-01-07T10:01:39.140Z,13.02
2023-01-07T10:04:37.377Z,12.82
2023-01-07T10:07:34.066Z,12.63
2023-01-07T10:10:31.243Z,14.07
2023-01-07T10:13:39.555Z,17.08
2023-01-07T10:16:22.244Z,13.77
2023-01-07T10:19:33.116Z,11.75
2023-01-07T10:22:15.948Z,12.18
2023-01-07T10:24:52.063Z,10.25
2023-01-07T10:27:35.390Z,11.23
2023-01-07T10:30:13.734Z,10.05
2023-01-07T10:32:42.307Z,8.90
2023-01-07T10:35:22.307Z,8.20
2023-01-07T10:37:50.435Z,9.40
2023-01-07T10:40:51.254Z,8.52
2023-01-07T10:43:41.634Z,8.93
2023-01-07T10:46:19.081Z,16.88
2023-01-07T10:48:58.809Z,8.82
2023-01-07T10:51:50.927Z,10.57
2023-01-07T10:54:50.704Z,9.60
2023-01-07T10:57:25.051Z,8.38
2023-01-07T10:59:58.361Z,6.72
2023-01-07T11:02:27.800Z,5.35
2023-01-07T11:04:57.723Z,9.57
2023-01-07T11:07:40.470Z,12.65
2023-01-07T11:10:19.558Z,8.57
2023-01-07T11:12:49.782Z,6.30
2023-01-07T11:15:33.098Z,9.63
2023-01-07T11:18:11.766Z,25.35
2023-01-07T11:20:49.258Z,20.90
2023-01-07T11:23:33.159Z,16.75
2023-01-07T11:26:31.452Z,7.75
2023-01-07T11:29:15.712Z,4.57
2023-01-07T11:31:53.871Z,5.53
2023-01-07T11:34:34.809Z,8.13
2023-01-07T11:37:04.963Z,11.15
2023-01-07T11:39:36.730Z,14.93
2023-01-07T11:42:37.219Z,13.98
2023-01-07T11:45:35.335Z,17.42
2023-01-07T11:48:06.029Z,33.70
2023-01-07T11:50:44.056Z,4.68
2023-01-07T11:53:14.597Z,3.97
2023-01-07T11:55:57.559Z,4.60
2023-01-07T11:58:31.150Z,6.80
2023-01-07T12:01:18.461Z,40.97
2023-01-07T12:04:33.842Z,34.65
2023-01-07T12:07:13.169Z,15.52
2023-01-07T12:09:44.125Z,11.82
2023-01-07T12:12:31.946Z,32.92
2023-01-07T12:15:05.353Z,89.75
2023-01-07T12:17:35.983Z,44.28
2023-01-07T12:23:16.519Z,30.65
2023-01-07T12:26:09.104Z,9.00
2023-01-07T12:29:32.150Z,8.27
2023-01-07T12:32:39.622Z,4.38
2023-01-07T12:35:15.267Z,3.30
2023-01-07T12:37:54.064Z,5.32
2023-01-07T12:40:40.721Z,4.13
2023-01-07T12:43:25.955Z,4.18
2023-01-07T12:46:00.511Z,3.50
2023-01-07T12:49:02.396Z,4.47
2023-01-07T12:51:41.042Z,4.68
2023-01-07T12:54:48.247Z,4.13
2023-01-07T12:57:18.613Z,4.78
2023-01-07T13:00:08.505Z,7.85
2023-01-07T18:03:24.958Z,5.38
2023-01-07T18:05:52.552Z,4.72
2023-01-07T18:08:20.037Z,3.65
2023-01-07T18:11:07.627Z,2.85
2023-01-07T18:13:35.044Z,3.47
2023-01-07T18:17:47.780Z,30.42
2023-01-07T18:20:16.565Z,29.25
2023-01-07T18:22:44.779Z,27.05
2023-01-07T18:25:20.956Z,26.90
2023-01-07T18:27:52.827Z,24.30
2023-01-07T18:31:48.270Z,23.85
2023-01-07T18:34:16.164Z,24.33
2023-01-07T18:36:43.694Z,27.60
2023-01-07T18:39:19.349Z,26.25
2023-01-07T18:41:51.067Z,26.15
2023-01-07T18:44:20.538Z,25.65
2023-01-07T18:46:48.117Z,25.65
2023-01-07T18:49:16.037Z,27.48
2023-01-07T18:51:46.932Z,26.88
2023-01-07T18:54:15.231Z,32.17
2023-01-07T18:56:45.740Z,28.25
2023-01-07T18:59:14.370Z,26.90
2023-01-07T19:01:42.042Z,33.03
2023-01-07T19:04:09.692Z,37.78
2023-01-07T19:06:37.207Z,36.20
2023-01-07T19:09:04.596Z,34.08
2023-01-07T19:11:32.011Z,27.38
2023-01-07T19:13:59.417Z,21.42
2023-01-07T19:16:26.920Z,22.73
2023-01-07T19:18:54.390Z,22.00
2023-01-07T19:21:22.039Z,23.02
2023-01-07T19:23:49.579Z,22.20
2023-01-07T19:26:17.053Z,22.95
2023-01-07T19:28:44.662Z,22.75
2023-01-07T19:31:12.138Z,26.05
2023-01-07T19:33:40.165Z,24.77
2023-01-07T19:36:11.289Z,24.30
2023-01-07T19:38:41.045Z,22.80
2023-01-07T19:41:11.844Z,24.13
2023-01-07T19:43:39.602Z,23.38
2023-01-07T19:46:08.347Z,23.05
2023-01-07T19:48:35.933Z,22.45
2023-01-07T19:51:05.846Z,26.95
2023-01-07T19:53:35.118Z,29.48
2023-01-07T19:56:07.878Z,30.80
2023-01-07T19:58:36.628Z,28.50
2023-01-07T20:24:23.666Z,21.05
2023-01-07T20:29:38.736Z,20.58
2023-01-07T20:32:08.167Z,20.35
2023-01-07T20:34:35.701Z,20.63
2023-01-07T20:37:03.257Z,21.38
2023-01-07T20:40:10.477Z,20.15
2023-01-07T20:42:37.977Z,23.48
2023-01-07T20:45:06.444Z,24.60
2023-01-07T20:47:34.147Z,27.08
2023-01-07T20:50:01.517Z,25.02
2023-01-07T20:52:28.930Z,22.20
2023-01-07T20:54:56.308Z,26.10
2023-01-07T20:57:24.004Z,19.90
2023-01-07T20:59:51.477Z,24.08
2023-01-07T21:02:20.416Z,24.40
2023-01-07T21:04:47.910Z,25.25
2023-01-07T21:07:15.313Z,27.45
2023-01-07T21:09:44.760Z,27.52
2023-01-07T21:12:12.342Z,27.85
2023-01-07T21:14:39.734Z,29.08
2023-01-07T21:17:07.167Z,28.48
2023-01-07T21:19:34.551Z,32.08
2023-01-07T21:22:01.957Z,32.00
2023-01-07T21:24:29.723Z,29.75
2023-01-07T21:26:57.215Z,27.60
2023-01-07T21:29:24.655Z,29.17
2023-01-07T21:31:53.492Z,29.77
2023-01-07T21:34:21.311Z,31.33
2023-01-07T21:36:48.950Z,31.75
2023-01-07T21:39:16.453Z,27.92
2023-01-07T21:41:43.855Z,27.88
2023-01-07T21:44:12.273Z,38.20
2023-01-07T21:46:39.667Z,40.22
2023-01-07T21:49:08.383Z,39.45
2023-01-07T21:51:35.918Z,33.75
2023-01-07T21:54:03.625Z,36.95
2023-01-07T21:56:32.922Z,39.05
2023-01-07T21:59:00.730Z,40.03
2023-01-07T22:01:28.952Z,41.20
2023-01-07T22:03:58.609Z,35.85
2023-01-07T22:06:38.842Z,29.17
2023-01-07T22:09:12.993Z,26.27
2023-01-07T22:11:42.563Z,26.98
2023-01-07T22:14:17.730Z,25.83
2023-01-07T22:16:48.108Z,24.80
2023-01-07T22:19:16.462Z,23.35
2023-01-07T22:21:43.912Z,22.67
2023-01-07T22:24:11.317Z,22.35
2023-01-07T22:26:38.781Z,23.10
2023-01-07T22:29:07.828Z,21.88
2023-01-07T22:31:37.120Z,22.35
2023-01-07T22:34:09.239Z,21.48
2023-01-07T22:36:52.040Z,22.42
2023-01-07T22:39:37.389Z,21.77
2023-01-07T22:42:22.567Z,23.48
2023-01-07T22:45:01.319Z,22.35
2023-01-07T22:47:40.689Z,20.92
2023-01-07T22:50:09.578Z,20.00
2023-01-07T22:52:38.132Z,21.20
2023-01-07T22:55:06.319Z,20.58
2023-01-07T22:57:35.728Z,21.38
2023-01-07T23:00:13.952Z,19.17
2023-01-07T23:02:41.340Z,19.17
2023-01-07T23:05:08.903Z,15.60
2023-01-07T23:07:36.320Z,15.75
2023-01-07T23:10:04.019Z,17.35
2023-01-07T23:12:31.376Z,15.70
2023-01-07T23:14:58.733Z,17.45
2023-01-07T23:17:26.336Z,17.73
2023-01-07T23:19:53.798Z,17.80
2023-01-07T23:22:21.237Z,18.65
2023-01-07T23:24:48.600Z,17.13
2023-01-07T23:27:16.015Z,17.80
2023-01-07T23:29:43.509Z,20.20
2023-01-07T23:32:12.663Z,21.15
2023-01-07T23:34:40.214Z,19.75
2023-01-07T23:37:07.643Z,19.83
2023-01-07T23:39:35.035Z,19.92
2023-01-07T23:42:02.408Z,19.45
2023-01-07T23:44:29.780Z,17.58
2023-01-07T23:46:57.697Z,20.38
2023-01-07T23:49:25.095Z,19.52
2023-01-07T23:51:52.490Z,25.25
2023-01-07T23:54:20.096Z,23.85
2023-01-07T23:56:48.713Z,22.45
2023-01-07T23:59:16.714Z,22.83
